sensor_id;sensor_type;location;lat;lon;timestamp;temperature;humidity
12769;DHT22;6448;48.916;8.990;2023-11-21T00:00:36;14.70;58.30
12769;DHT22;6448;48.916;8.990;2023-11-21T00:01:38;14.60;58.20
12769;DHT22;6448;48.916;8.990;2023-11-21T00:02:39;14.70;58.20
12769;DHT22;6448;48.916;8.990;2023-11-21T00:03:41;14.70;58.20
12769;DHT22;6448;48.916;8.990;2023-11-21T00:04:42;14.60;58.10
12769;DHT22;6448;48.916;8.990;2023-11-21T00:05:42;14.60;58.20
12769;DHT22;6448;48.916;8.990;2023-11-21T00:06:44;14.60;58.20
12769;DHT22;6448;48.916;8.990;2023-11-21T00:07:47;14.60;58.20
12769;DHT22;6448;48.916;8.990;2023-11-21T00:08:49;14.60;58.30
12769;DHT22;6448;48.916;8.990;2023-11-21T00:09:50;14.60;58.30
12769;DHT22;6448;48.916;8.990;2023-11-21T00:10:53;14.60;58.90
12769;DHT22;6448;48.916;8.990;2023-11-21T00:11:54;14.60;58.40
12769;DHT22;6448;48.916;8.990;2023-11-21T00:12:55;14.60;58.50
12769;DHT22;6448;48.916;8.990;2023-11-21T00:13:56;14.60;58.50
12769;DHT22;6448;48.916;8.990;2023-11-21T00:14:58;14.60;58.40
12769;DHT22;6448;48.916;8.990;2023-11-21T00:15:59;14.60;58.40
12769;DHT22;6448;48.916;8.990;2023-11-21T00:17:00;14.60;58.50
12769;DHT22;6448;48.916;8.990;2023-11-21T00:18:01;14.60;58.50
12769;DHT22;6448;48.916;8.990;2023-11-21T00:19:03;14.60;58.50
12769;DHT22;6448;48.916;8.990;2023-11-21T00:20:06;14.60;58.60
12769;DHT22;6448;48.916;8.990;2023-11-21T00:21:08;14.60;58.60
12769;DHT22;6448;48.916;8.990;2023-11-21T00:22:09;14.60;58.60
12769;DHT22;6448;48.916;8.990;2023-11-21T00:23:11;14.60;58.60
12769;DHT22;6448;48.916;8.990;2023-11-21T00:24:12;14.60;58.60
12769;DHT22;6448;48.916;8.990;2023-11-21T00:25:14;14.60;58.60
12769;DHT22;6448;48.916;8.990;2023-11-21T00:26:17;14.60;58.60
12769;DHT22;6448;48.916;8.990;2023-11-21T00:27:24;14.60;58.60
12769;DHT22;6448;48.916;8.990;2023-11-21T00:28:26;14.60;58.50
12769;DHT22;6448;48.916;8.990;2023-11-21T00:29:28;14.70;58.60
12769;DHT22;6448;48.916;8.990;2023-11-21T00:30:29;14.60;58.50
12769;DHT22;6448;48.916;8.990;2023-11-21T00:31:31;14.60;58.50
12769;DHT22;6448;48.916;8.990;2023-11-21T00:32:33;14.60;58.50
12769;DHT22;6448;48.916;8.990;2023-11-21T00:33:34;14.60;58.50
12769;DHT22;6448;48.916;8.990;2023-11-21T00:34:36;14.60;58.50
12769;DHT22;6448;48.916;8.990;2023-11-21T00:35:37;14.60;58.50
12769;DHT22;6448;48.916;8.990;2023-11-21T00:36:39;14.60;58.50
12769;DHT22;6448;48.916;8.990;2023-11-21T00:37:40;14.60;58.50
12769;DHT22;6448;48.916;8.990;2023-11-21T00:38:41;14.60;58.50
12769;DHT22;6448;48.916;8.990;2023-11-21T00:39:43;14.50;58.50
12769;DHT22;6448;48.916;8.990;2023-11-21T00:40:44;14.60;58.50
12769;DHT22;6448;48.916;8.990;2023-11-21T00:41:47;14.60;58.60
12769;DHT22;6448;48.916;8.990;2023-11-21T00:42:49;14.60;58.60
12769;DHT22;6448;48.916;8.990;2023-11-21T00:43:50;14.50;58.50
12769;DHT22;6448;48.916;8.990;2023-11-21T00:44:51;14.60;58.70
12769;DHT22;6448;48.916;8.990;2023-11-21T00:45:53;14.50;58.70
12769;DHT22;6448;48.916;8.990;2023-11-21T00:46:54;14.80;58.90
12769;DHT22;6448;48.916;8.990;2023-11-21T00:47:56;14.60;58.90
12769;DHT22;6448;48.916;8.990;2023-11-21T00:48:58;14.60;58.90
12769;DHT22;6448;48.916;8.990;2023-11-21T00:50:00;14.60;58.90
12769;DHT22;6448;48.916;8.990;2023-11-21T00:51:01;14.60;58.90
12769;DHT22;6448;48.916;8.990;2023-11-21T00:52:03;14.60;58.90
12769;DHT22;6448;48.916;8.990;2023-11-21T00:53:04;14.60;58.90
12769;DHT22;6448;48.916;8.990;2023-11-21T00:54:07;14.50;58.80
12769;DHT22;6448;48.916;8.990;2023-11-21T00:55:08;14.60;58.90
12769;DHT22;6448;48.916;8.990;2023-11-21T00:56:12;14.60;58.90
12769;DHT22;6448;48.916;8.990;2023-11-21T00:57:15;14.60;58.90
12769;DHT22;6448;48.916;8.990;2023-11-21T00:58:17;14.60;58.90
12769;DHT22;6448;48.916;8.990;2023-11-21T00:59:18;14.60;58.90
12769;DHT22;6448;48.916;8.990;2023-11-21T01:00:19;14.60;58.80
12769;DHT22;6448;48.916;8.990;2023-11-21T01:01:21;14.60;58.80
12769;DHT22;6448;48.916;8.990;2023-11-21T01:02:22;14.60;58.70
12769;DHT22;6448;48.916;8.990;2023-11-21T01:03:25;14.60;58.80
12769;DHT22;6448;48.916;8.990;2023-11-21T01:04:26;14.60;58.70
12769;DHT22;6448;48.916;8.990;2023-11-21T01:05:28;14.50;58.70
12769;DHT22;6448;48.916;8.990;2023-11-21T01:06:30;14.50;58.80
12769;DHT22;6448;48.916;8.990;2023-11-21T01:07:31;14.50;58.80
12769;DHT22;6448;48.916;8.990;2023-11-21T01:08:32;14.50;58.80
12769;DHT22;6448;48.916;8.990;2023-11-21T01:09:34;14.50;58.90
12769;DHT22;6448;48.916;8.990;2023-11-21T01:10:35;14.40;58.90
12769;DHT22;6448;48.916;8.990;2023-11-21T01:11:37;14.40;59.00
12769;DHT22;6448;48.916;8.990;2023-11-21T01:12:40;14.40;59.10
12769;DHT22;6448;48.916;8.990;2023-11-21T01:13:42;14.40;59.20
12769;DHT22;6448;48.916;8.990;2023-11-21T01:14:45;14.60;59.30
12769;DHT22;6448;48.916;8.990;2023-11-21T01:15:46;14.40;59.30
12769;DHT22;6448;48.916;8.990;2023-11-21T01:16:48;14.30;59.30
12769;DHT22;6448;48.916;8.990;2023-11-21T01:17:49;14.40;59.40
12769;DHT22;6448;48.916;8.990;2023-11-21T01:18:51;14.30;59.40
12769;DHT22;6448;48.916;8.990;2023-11-21T01:19:52;14.30;59.40
12769;DHT22;6448;48.916;8.990;2023-11-21T01:20:54;14.20;59.40
12769;DHT22;6448;48.916;8.990;2023-11-21T01:21:54;14.30;59.50
12769;DHT22;6448;48.916;8.990;2023-11-21T01:22:58;14.30;59.60
12769;DHT22;6448;48.916;8.990;2023-11-21T01:23:59;14.30;59.60
12769;DHT22;6448;48.916;8.990;2023-11-21T01:25:01;14.30;59.60
12769;DHT22;6448;48.916;8.990;2023-11-21T01:26:05;14.30;59.70
12769;DHT22;6448;48.916;8.990;2023-11-21T01:27:08;14.40;59.80
12769;DHT22;6448;48.916;8.990;2023-11-21T01:28:10;14.40;59.80
12769;DHT22;6448;48.916;8.990;2023-11-21T01:29:12;14.30;60.50
12769;DHT22;6448;48.916;8.990;2023-11-21T01:30:13;14.50;59.90
12769;DHT22;6448;48.916;8.990;2023-11-21T01:31:16;14.40;59.80
12769;DHT22;6448;48.916;8.990;2023-11-21T01:32:17;14.50;59.90
12769;DHT22;6448;48.916;8.990;2023-11-21T01:33:19;14.40;59.80
12769;DHT22;6448;48.916;8.990;2023-11-21T01:34:20;14.40;59.90
12769;DHT22;6448;48.916;8.990;2023-11-21T01:35:22;14.40;60.10
12769;DHT22;6448;48.916;8.990;2023-11-21T01:36:23;14.40;59.90
12769;DHT22;6448;48.916;8.990;2023-11-21T01:37:24;14.40;59.90
12769;DHT22;6448;48.916;8.990;2023-11-21T01:38:28;14.40;59.90
12769;DHT22;6448;48.916;8.990;2023-11-21T01:39:30;14.40;59.80
12769;DHT22;6448;48.916;8.990;2023-11-21T01:40:30;14.40;59.80
12769;DHT22;6448;48.916;8.990;2023-11-21T01:41:32;14.40;59.80
12769;DHT22;6448;48.916;8.990;2023-11-21T01:42:33;14.40;59.80
12769;DHT22;6448;48.916;8.990;2023-11-21T01:43:36;14.40;59.90
12769;DHT22;6448;48.916;8.990;2023-11-21T01:44:38;14.40;59.90
12769;DHT22;6448;48.916;8.990;2023-11-21T01:45:39;14.40;59.90
12769;DHT22;6448;48.916;8.990;2023-11-21T01:46:40;14.40;59.90
12769;DHT22;6448;48.916;8.990;2023-11-21T01:47:44;14.30;59.90
12769;DHT22;6448;48.916;8.990;2023-11-21T01:48:45;14.50;60.00
12769;DHT22;6448;48.916;8.990;2023-11-21T01:49:47;14.50;60.00
12769;DHT22;6448;48.916;8.990;2023-11-21T01:50:48;14.50;60.00
12769;DHT22;6448;48.916;8.990;2023-11-21T01:51:50;14.50;59.90
12769;DHT22;6448;48.916;8.990;2023-11-21T01:52:52;14.50;60.00
12769;DHT22;6448;48.916;8.990;2023-11-21T01:53:55;14.50;60.00
12769;DHT22;6448;48.916;8.990;2023-11-21T01:54:57;14.50;60.00
12769;DHT22;6448;48.916;8.990;2023-11-21T01:55:59;14.50;60.00
12769;DHT22;6448;48.916;8.990;2023-11-21T01:57:01;14.50;60.00
12769;DHT22;6448;48.916;8.990;2023-11-21T01:58:06;14.50;60.00
12769;DHT22;6448;48.916;8.990;2023-11-21T01:59:10;14.50;60.00
12769;DHT22;6448;48.916;8.990;2023-11-21T02:00:12;14.50;60.00
12769;DHT22;6448;48.916;8.990;2023-11-21T02:01:15;14.50;60.00
12769;DHT22;6448;48.916;8.990;2023-11-21T02:02:19;14.50;59.90
12769;DHT22;6448;48.916;8.990;2023-11-21T02:03:20;14.50;59.90
12769;DHT22;6448;48.916;8.990;2023-11-21T02:04:23;14.50;59.90
12769;DHT22;6448;48.916;8.990;2023-11-21T02:05:23;14.60;59.90
12769;DHT22;6448;48.916;8.990;2023-11-21T02:06:26;14.60;59.90
12769;DHT22;6448;48.916;8.990;2023-11-21T02:07:27;14.60;59.90
12769;DHT22;6448;48.916;8.990;2023-11-21T02:08:29;14.60;59.90
12769;DHT22;6448;48.916;8.990;2023-11-21T02:09:29;14.60;59.90
12769;DHT22;6448;48.916;8.990;2023-11-21T02:10:32;14.60;59.90
12769;DHT22;6448;48.916;8.990;2023-11-21T02:11:33;14.60;59.80
12769;DHT22;6448;48.916;8.990;2023-11-21T02:12:36;14.60;59.80
12769;DHT22;6448;48.916;8.990;2023-11-21T02:13:37;14.50;59.70
12769;DHT22;6448;48.916;8.990;2023-11-21T02:14:40;14.50;59.70
12769;DHT22;6448;48.916;8.990;2023-11-21T02:15:41;14.50;59.80
12769;DHT22;6448;48.916;8.990;2023-11-21T02:16:42;14.50;59.80
12769;DHT22;6448;48.916;8.990;2023-11-21T02:17:50;14.50;59.80
12769;DHT22;6448;48.916;8.990;2023-11-21T02:18:52;14.50;59.80
12769;DHT22;6448;48.916;8.990;2023-11-21T02:19:54;14.50;59.80
12769;DHT22;6448;48.916;8.990;2023-11-21T02:20:56;14.40;59.80
12769;DHT22;6448;48.916;8.990;2023-11-21T02:21:57;14.50;59.90
12769;DHT22;6448;48.916;8.990;2023-11-21T02:23:05;14.50;59.90
12769;DHT22;6448;48.916;8.990;2023-11-21T02:24:07;14.60;60.00
12769;DHT22;6448;48.916;8.990;2023-11-21T02:25:10;14.40;59.90
12769;DHT22;6448;48.916;8.990;2023-11-21T02:26:11;14.50;60.10
12769;DHT22;6448;48.916;8.990;2023-11-21T02:27:14;14.60;60.10
12769;DHT22;6448;48.916;8.990;2023-11-21T02:28:21;14.50;60.10
12769;DHT22;6448;48.916;8.990;2023-11-21T02:29:27;14.50;60.20
12769;DHT22;6448;48.916;8.990;2023-11-21T02:30:29;14.50;60.00
12769;DHT22;6448;48.916;8.990;2023-11-21T02:31:32;14.50;60.10
12769;DHT22;6448;48.916;8.990;2023-11-21T02:32:33;14.50;60.10
12769;DHT22;6448;48.916;8.990;2023-11-21T02:33:35;14.50;60.10
12769;DHT22;6448;48.916;8.990;2023-11-21T02:34:36;14.50;60.10
12769;DHT22;6448;48.916;8.990;2023-11-21T02:35:38;14.50;60.10
12769;DHT22;6448;48.916;8.990;2023-11-21T02:36:39;14.50;60.10
12769;DHT22;6448;48.916;8.990;2023-11-21T02:37:43;14.50;60.00
12769;DHT22;6448;48.916;8.990;2023-11-21T02:38:45;14.50;59.90
12769;DHT22;6448;48.916;8.990;2023-11-21T02:39:46;14.60;59.90
12769;DHT22;6448;48.916;8.990;2023-11-21T02:40:48;14.50;59.90
12769;DHT22;6448;48.916;8.990;2023-11-21T02:41:49;14.50;59.90
12769;DHT22;6448;48.916;8.990;2023-11-21T02:42:51;14.50;59.90
12769;DHT22;6448;48.916;8.990;2023-11-21T02:43:52;14.60;60.00
12769;DHT22;6448;48.916;8.990;2023-11-21T02:44:55;14.50;60.00
12769;DHT22;6448;48.916;8.990;2023-11-21T02:45:57;14.60;60.00
12769;DHT22;6448;48.916;8.990;2023-11-21T02:46:59;14.50;59.90
12769;DHT22;6448;48.916;8.990;2023-11-21T02:48:00;14.60;60.00
12769;DHT22;6448;48.916;8.990;2023-11-21T02:49:03;14.60;60.00
12769;DHT22;6448;48.916;8.990;2023-11-21T02:50:05;14.60;60.00
12769;DHT22;6448;48.916;8.990;2023-11-21T02:51:08;14.60;60.00
12769;DHT22;6448;48.916;8.990;2023-11-21T02:52:09;14.60;59.90
12769;DHT22;6448;48.916;8.990;2023-11-21T02:53:10;14.60;59.90
12769;DHT22;6448;48.916;8.990;2023-11-21T02:54:12;14.60;59.80
12769;DHT22;6448;48.916;8.990;2023-11-21T02:55:14;14.60;59.80
12769;DHT22;6448;48.916;8.990;2023-11-21T02:56:15;14.60;59.80
12769;DHT22;6448;48.916;8.990;2023-11-21T02:57:16;14.60;59.80
12769;DHT22;6448;48.916;8.990;2023-11-21T02:58:19;14.60;59.80
12769;DHT22;6448;48.916;8.990;2023-11-21T02:59:20;14.60;59.80
12769;DHT22;6448;48.916;8.990;2023-11-21T03:00:21;14.60;59.80
12769;DHT22;6448;48.916;8.990;2023-11-21T03:01:24;14.60;59.80
12769;DHT22;6448;48.916;8.990;2023-11-21T03:02:25;14.60;59.80
12769;DHT22;6448;48.916;8.990;2023-11-21T03:03:27;14.60;59.80
12769;DHT22;6448;48.916;8.990;2023-11-21T03:04:29;14.60;59.80
12769;DHT22;6448;48.916;8.990;2023-11-21T03:05:33;14.60;59.80
12769;DHT22;6448;48.916;8.990;2023-11-21T03:06:36;14.60;59.70
12769;DHT22;6448;48.916;8.990;2023-11-21T03:07:38;14.60;59.80
12769;DHT22;6448;48.916;8.990;2023-11-21T03:08:39;14.60;59.80
12769;DHT22;6448;48.916;8.990;2023-11-21T03:09:41;14.50;59.70
12769;DHT22;6448;48.916;8.990;2023-11-21T03:10:43;14.60;59.80
12769;DHT22;6448;48.916;8.990;2023-11-21T03:11:43;14.60;59.90
12769;DHT22;6448;48.916;8.990;2023-11-21T03:12:44;14.60;59.90
12769;DHT22;6448;48.916;8.990;2023-11-21T03:13:46;14.50;59.90
12769;DHT22;6448;48.916;8.990;2023-11-21T03:14:47;14.50;59.90
12769;DHT22;6448;48.916;8.990;2023-11-21T03:15:48;14.60;60.00
12769;DHT22;6448;48.916;8.990;2023-11-21T03:16:49;14.60;60.10
12769;DHT22;6448;48.916;8.990;2023-11-21T03:17:51;14.60;60.10
12769;DHT22;6448;48.916;8.990;2023-11-21T03:18:52;14.50;60.10
12769;DHT22;6448;48.916;8.990;2023-11-21T03:19:53;14.60;60.20
12769;DHT22;6448;48.916;8.990;2023-11-21T03:20:55;14.60;60.20
12769;DHT22;6448;48.916;8.990;2023-11-21T03:21:56;14.60;60.30
12769;DHT22;6448;48.916;8.990;2023-11-21T03:22:58;14.60;60.30
12769;DHT22;6448;48.916;8.990;2023-11-21T03:24:00;14.60;60.40
12769;DHT22;6448;48.916;8.990;2023-11-21T03:25:02;14.50;60.30
12769;DHT22;6448;48.916;8.990;2023-11-21T03:26:05;14.60;60.50
12769;DHT22;6448;48.916;8.990;2023-11-21T03:27:10;14.60;60.40
12769;DHT22;6448;48.916;8.990;2023-11-21T03:28:12;14.60;60.30
12769;DHT22;6448;48.916;8.990;2023-11-21T03:29:13;14.60;60.30
12769;DHT22;6448;48.916;8.990;2023-11-21T03:30:15;14.60;60.30
12769;DHT22;6448;48.916;8.990;2023-11-21T03:31:17;14.60;60.30
12769;DHT22;6448;48.916;8.990;2023-11-21T03:32:19;14.60;61.10
12769;DHT22;6448;48.916;8.990;2023-11-21T03:33:21;14.60;60.30
12769;DHT22;6448;48.916;8.990;2023-11-21T03:34:24;14.60;60.40
12769;DHT22;6448;48.916;8.990;2023-11-21T03:35:26;14.60;60.40
12769;DHT22;6448;48.916;8.990;2023-11-21T03:36:28;14.60;60.40
12769;DHT22;6448;48.916;8.990;2023-11-21T03:37:30;14.60;60.40
12769;DHT22;6448;48.916;8.990;2023-11-21T03:38:30;14.60;60.30
12769;DHT22;6448;48.916;8.990;2023-11-21T03:39:32;14.60;60.40
12769;DHT22;6448;48.916;8.990;2023-11-21T03:40:34;14.60;60.40
12769;DHT22;6448;48.916;8.990;2023-11-21T03:41:36;14.60;60.40
12769;DHT22;6448;48.916;8.990;2023-11-21T03:42:37;14.60;60.30
12769;DHT22;6448;48.916;8.990;2023-11-21T03:43:38;14.60;60.30
12769;DHT22;6448;48.916;8.990;2023-11-21T03:44:40;14.60;60.30
12769;DHT22;6448;48.916;8.990;2023-11-21T03:45:41;14.70;60.30
12769;DHT22;6448;48.916;8.990;2023-11-21T03:46:42;14.60;60.30
12769;DHT22;6448;48.916;8.990;2023-11-21T03:47:45;14.70;60.30
12769;DHT22;6448;48.916;8.990;2023-11-21T03:48:47;14.60;60.20
12769;DHT22;6448;48.916;8.990;2023-11-21T03:49:50;14.60;60.20
12769;DHT22;6448;48.916;8.990;2023-11-21T03:50:50;14.60;60.20
12769;DHT22;6448;48.916;8.990;2023-11-21T03:51:52;14.60;60.10
12769;DHT22;6448;48.916;8.990;2023-11-21T03:52:53;14.60;60.10
12769;DHT22;6448;48.916;8.990;2023-11-21T03:53:55;14.60;60.10
12769;DHT22;6448;48.916;8.990;2023-11-21T03:54:56;14.60;60.10
12769;DHT22;6448;48.916;8.990;2023-11-21T03:56:02;14.60;60.10
12769;DHT22;6448;48.916;8.990;2023-11-21T03:57:03;14.70;60.20
12769;DHT22;6448;48.916;8.990;2023-11-21T03:58:04;14.60;60.20
12769;DHT22;6448;48.916;8.990;2023-11-21T03:59:06;14.60;60.10
12769;DHT22;6448;48.916;8.990;2023-11-21T04:00:07;14.60;60.20
12769;DHT22;6448;48.916;8.990;2023-11-21T04:01:19;14.60;60.20
12769;DHT22;6448;48.916;8.990;2023-11-21T04:02:22;14.60;60.30
12769;DHT22;6448;48.916;8.990;2023-11-21T04:03:26;14.60;60.40
12769;DHT22;6448;48.916;8.990;2023-11-21T04:04:26;14.50;60.30
12769;DHT22;6448;48.916;8.990;2023-11-21T04:05:28;14.50;60.30
12769;DHT22;6448;48.916;8.990;2023-11-21T04:06:29;14.60;60.50
12769;DHT22;6448;48.916;8.990;2023-11-21T04:07:33;14.60;60.50
12769;DHT22;6448;48.916;8.990;2023-11-21T04:08:34;14.60;60.50
12769;DHT22;6448;48.916;8.990;2023-11-21T04:09:35;14.50;60.50
12769;DHT22;6448;48.916;8.990;2023-11-21T04:10:36;14.60;60.60
12769;DHT22;6448;48.916;8.990;2023-11-21T04:11:41;14.50;60.50
12769;DHT22;6448;48.916;8.990;2023-11-21T04:12:43;14.50;60.50
12769;DHT22;6448;48.916;8.990;2023-11-21T04:13:46;14.60;60.60
12769;DHT22;6448;48.916;8.990;2023-11-21T04:14:47;14.50;60.60
12769;DHT22;6448;48.916;8.990;2023-11-21T04:15:49;14.50;60.60
12769;DHT22;6448;48.916;8.990;2023-11-21T04:16:50;14.50;60.70
12769;DHT22;6448;48.916;8.990;2023-11-21T04:17:50;14.70;60.70
12769;DHT22;6448;48.916;8.990;2023-11-21T04:18:52;14.50;60.70
12769;DHT22;6448;48.916;8.990;2023-11-21T04:19:53;14.50;60.70
12769;DHT22;6448;48.916;8.990;2023-11-21T04:20:54;14.60;60.80
12769;DHT22;6448;48.916;8.990;2023-11-21T04:21:56;14.50;60.80
12769;DHT22;6448;48.916;8.990;2023-11-21T04:22:56;14.60;60.80
12769;DHT22;6448;48.916;8.990;2023-11-21T04:23:58;14.60;60.80
12769;DHT22;6448;48.916;8.990;2023-11-21T04:24:59;14.60;60.80
12769;DHT22;6448;48.916;8.990;2023-11-21T04:26:00;14.60;60.80
12769;DHT22;6448;48.916;8.990;2023-11-21T04:27:05;14.60;60.80
12769;DHT22;6448;48.916;8.990;2023-11-21T04:28:05;14.60;60.80
12769;DHT22;6448;48.916;8.990;2023-11-21T04:29:07;14.60;60.70
12769;DHT22;6448;48.916;8.990;2023-11-21T04:30:08;14.60;60.80
12769;DHT22;6448;48.916;8.990;2023-11-21T04:31:10;14.60;60.80
12769;DHT22;6448;48.916;8.990;2023-11-21T04:32:12;14.60;60.80
12769;DHT22;6448;48.916;8.990;2023-11-21T04:33:13;14.60;60.90
12769;DHT22;6448;48.916;8.990;2023-11-21T04:34:15;14.60;60.80
12769;DHT22;6448;48.916;8.990;2023-11-21T04:35:15;14.80;61.00
12769;DHT22;6448;48.916;8.990;2023-11-21T04:36:17;14.60;60.80
12769;DHT22;6448;48.916;8.990;2023-11-21T04:37:18;14.60;60.80
12769;DHT22;6448;48.916;8.990;2023-11-21T04:38:20;14.60;60.80
12769;DHT22;6448;48.916;8.990;2023-11-21T04:39:20;14.60;60.70
12769;DHT22;6448;48.916;8.990;2023-11-21T04:40:22;14.50;60.60
12769;DHT22;6448;48.916;8.990;2023-11-21T04:41:24;14.70;60.70
12769;DHT22;6448;48.916;8.990;2023-11-21T04:42:27;14.60;60.60
12769;DHT22;6448;48.916;8.990;2023-11-21T04:43:27;14.60;60.50
12769;DHT22;6448;48.916;8.990;2023-11-21T04:44:29;14.60;60.50
12769;DHT22;6448;48.916;8.990;2023-11-21T04:45:30;14.70;60.50
12769;DHT22;6448;48.916;8.990;2023-11-21T04:46:31;14.60;60.50
12769;DHT22;6448;48.916;8.990;2023-11-21T04:47:33;14.60;60.50
12769;DHT22;6448;48.916;8.990;2023-11-21T04:48:33;14.60;60.50
12769;DHT22;6448;48.916;8.990;2023-11-21T04:49:35;14.70;60.50
12769;DHT22;6448;48.916;8.990;2023-11-21T04:50:36;14.60;61.30
12769;DHT22;6448;48.916;8.990;2023-11-21T04:51:38;14.60;60.50
12769;DHT22;6448;48.916;8.990;2023-11-21T04:52:39;14.60;60.50
12769;DHT22;6448;48.916;8.990;2023-11-21T04:53:41;14.60;60.60
12769;DHT22;6448;48.916;8.990;2023-11-21T04:54:42;14.60;60.60
12769;DHT22;6448;48.916;8.990;2023-11-21T04:55:44;14.60;60.60
12769;DHT22;6448;48.916;8.990;2023-11-21T04:56:44;14.60;60.60
12769;DHT22;6448;48.916;8.990;2023-11-21T04:57:47;14.60;60.60
12769;DHT22;6448;48.916;8.990;2023-11-21T04:58:48;14.70;60.60
12769;DHT22;6448;48.916;8.990;2023-11-21T04:59:50;14.60;60.60
12769;DHT22;6448;48.916;8.990;2023-11-21T05:00:51;14.60;60.60
12769;DHT22;6448;48.916;8.990;2023-11-21T05:01:53;14.60;60.50
12769;DHT22;6448;48.916;8.990;2023-11-21T05:02:54;14.60;60.50
12769;DHT22;6448;48.916;8.990;2023-11-21T05:03:56;14.60;60.50
12769;DHT22;6448;48.916;8.990;2023-11-21T05:04:57;14.60;60.50
12769;DHT22;6448;48.916;8.990;2023-11-21T05:05:59;14.60;60.50
12769;DHT22;6448;48.916;8.990;2023-11-21T05:07:00;14.60;60.50
12769;DHT22;6448;48.916;8.990;2023-11-21T05:08:02;14.60;60.50
12769;DHT22;6448;48.916;8.990;2023-11-21T05:09:03;14.60;60.50
12769;DHT22;6448;48.916;8.990;2023-11-21T05:10:06;14.70;60.60
12769;DHT22;6448;48.916;8.990;2023-11-21T05:11:09;14.70;60.60
12769;DHT22;6448;48.916;8.990;2023-11-21T05:12:12;14.70;60.50
12769;DHT22;6448;48.916;8.990;2023-11-21T05:13:14;14.60;60.50
12769;DHT22;6448;48.916;8.990;2023-11-21T05:14:18;14.70;60.50
12769;DHT22;6448;48.916;8.990;2023-11-21T05:15:19;14.70;60.50
12769;DHT22;6448;48.916;8.990;2023-11-21T05:16:21;14.70;60.50
12769;DHT22;6448;48.916;8.990;2023-11-21T05:17:32;14.70;60.50
12769;DHT22;6448;48.916;8.990;2023-11-21T05:18:34;14.70;60.40
12769;DHT22;6448;48.916;8.990;2023-11-21T05:19:35;14.70;60.50
12769;DHT22;6448;48.916;8.990;2023-11-21T05:20:37;14.70;60.40
12769;DHT22;6448;48.916;8.990;2023-11-21T05:21:40;14.60;60.30
12769;DHT22;6448;48.916;8.990;2023-11-21T05:22:41;14.70;60.30
12769;DHT22;6448;48.916;8.990;2023-11-21T05:23:42;14.60;60.30
12769;DHT22;6448;48.916;8.990;2023-11-21T05:24:44;14.60;60.30
12769;DHT22;6448;48.916;8.990;2023-11-21T05:25:45;14.80;60.40
12769;DHT22;6448;48.916;8.990;2023-11-21T05:26:46;14.80;60.40
12769;DHT22;6448;48.916;8.990;2023-11-21T05:27:48;14.60;60.20
12769;DHT22;6448;48.916;8.990;2023-11-21T05:28:50;14.60;60.20
12769;DHT22;6448;48.916;8.990;2023-11-21T05:29:52;14.60;60.20
12769;DHT22;6448;48.916;8.990;2023-11-21T05:30:53;14.70;60.20
12769;DHT22;6448;48.916;8.990;2023-11-21T05:31:55;14.60;60.20
12769;DHT22;6448;48.916;8.990;2023-11-21T05:32:56;14.60;60.20
12769;DHT22;6448;48.916;8.990;2023-11-21T05:33:58;14.60;60.20
12769;DHT22;6448;48.916;8.990;2023-11-21T05:34:58;14.70;60.30
12769;DHT22;6448;48.916;8.990;2023-11-21T05:35:59;14.60;60.30
12769;DHT22;6448;48.916;8.990;2023-11-21T05:37:01;14.60;60.30
12769;DHT22;6448;48.916;8.990;2023-11-21T05:38:02;14.60;60.30
12769;DHT22;6448;48.916;8.990;2023-11-21T05:39:04;14.80;60.40
12769;DHT22;6448;48.916;8.990;2023-11-21T05:40:06;14.60;61.10
12769;DHT22;6448;48.916;8.990;2023-11-21T05:41:08;14.60;60.30
12769;DHT22;6448;48.916;8.990;2023-11-21T05:42:11;14.60;60.30
12769;DHT22;6448;48.916;8.990;2023-11-21T05:43:13;14.60;60.30
12769;DHT22;6448;48.916;8.990;2023-11-21T05:44:17;14.60;60.30
12769;DHT22;6448;48.916;8.990;2023-11-21T05:45:19;14.60;60.30
12769;DHT22;6448;48.916;8.990;2023-11-21T05:46:20;14.60;60.30
12769;DHT22;6448;48.916;8.990;2023-11-21T05:47:22;14.60;60.30
12769;DHT22;6448;48.916;8.990;2023-11-21T05:48:23;14.60;60.20
12769;DHT22;6448;48.916;8.990;2023-11-21T05:49:26;14.60;60.20
12769;DHT22;6448;48.916;8.990;2023-11-21T05:50:27;14.50;60.10
12769;DHT22;6448;48.916;8.990;2023-11-21T05:51:28;14.60;60.10
12769;DHT22;6448;48.916;8.990;2023-11-21T05:52:29;14.80;60.30
12769;DHT22;6448;48.916;8.990;2023-11-21T05:53:30;14.60;60.20
12769;DHT22;6448;48.916;8.990;2023-11-21T05:54:32;14.50;60.20
12769;DHT22;6448;48.916;8.990;2023-11-21T05:55:33;14.50;60.20
12769;DHT22;6448;48.916;8.990;2023-11-21T05:56:35;14.50;61.00
12769;DHT22;6448;48.916;8.990;2023-11-21T05:57:36;14.60;60.20
12769;DHT22;6448;48.916;8.990;2023-11-21T05:58:38;14.60;60.20
12769;DHT22;6448;48.916;8.990;2023-11-21T05:59:40;14.50;60.10
12769;DHT22;6448;48.916;8.990;2023-11-21T06:00:42;14.50;60.10
12769;DHT22;6448;48.916;8.990;2023-11-21T06:01:43;14.60;60.10
12769;DHT22;6448;48.916;8.990;2023-11-21T06:02:46;14.60;60.10
12769;DHT22;6448;48.916;8.990;2023-11-21T06:03:47;14.50;60.00
12769;DHT22;6448;48.916;8.990;2023-11-21T06:04:49;14.50;60.00
12769;DHT22;6448;48.916;8.990;2023-11-21T06:05:50;14.50;60.00
12769;DHT22;6448;48.916;8.990;2023-11-21T06:06:52;14.50;60.00
12769;DHT22;6448;48.916;8.990;2023-11-21T06:07:55;14.70;60.10
12769;DHT22;6448;48.916;8.990;2023-11-21T06:08:56;14.80;60.20
12769;DHT22;6448;48.916;8.990;2023-11-21T06:09:58;14.50;60.00
12769;DHT22;6448;48.916;8.990;2023-11-21T06:10:59;14.50;60.00
12769;DHT22;6448;48.916;8.990;2023-11-21T06:12:01;14.50;59.90
12769;DHT22;6448;48.916;8.990;2023-11-21T06:13:03;14.80;60.10
12769;DHT22;6448;48.916;8.990;2023-11-21T06:14:05;14.50;59.90
12769;DHT22;6448;48.916;8.990;2023-11-21T06:15:11;14.50;59.90
12769;DHT22;6448;48.916;8.990;2023-11-21T06:16:13;14.50;59.90
12769;DHT22;6448;48.916;8.990;2023-11-21T06:17:16;14.50;60.00
12769;DHT22;6448;48.916;8.990;2023-11-21T06:18:18;14.60;60.00
12769;DHT22;6448;48.916;8.990;2023-11-21T06:19:19;14.50;59.90
12769;DHT22;6448;48.916;8.990;2023-11-21T06:20:22;14.50;59.90
12769;DHT22;6448;48.916;8.990;2023-11-21T06:21:23;14.50;59.90
12769;DHT22;6448;48.916;8.990;2023-11-21T06:22:24;14.50;59.90
12769;DHT22;6448;48.916;8.990;2023-11-21T06:23:25;14.50;59.90
12769;DHT22;6448;48.916;8.990;2023-11-21T06:24:27;14.70;60.00
12769;DHT22;6448;48.916;8.990;2023-11-21T06:25:28;14.50;59.90
12769;DHT22;6448;48.916;8.990;2023-11-21T06:26:33;14.50;59.90
12769;DHT22;6448;48.916;8.990;2023-11-21T06:27:38;14.50;59.80
12769;DHT22;6448;48.916;8.990;2023-11-21T06:28:40;14.50;59.80
12769;DHT22;6448;48.916;8.990;2023-11-21T06:29:41;14.50;59.80
12769;DHT22;6448;48.916;8.990;2023-11-21T06:30:45;14.50;59.80
12769;DHT22;6448;48.916;8.990;2023-11-21T06:31:46;14.50;59.70
12769;DHT22;6448;48.916;8.990;2023-11-21T06:32:48;14.50;59.70
12769;DHT22;6448;48.916;8.990;2023-11-21T06:33:49;14.50;59.60
12769;DHT22;6448;48.916;8.990;2023-11-21T06:34:52;14.50;59.60
12769;DHT22;6448;48.916;8.990;2023-11-21T06:35:54;14.50;59.60
12769;DHT22;6448;48.916;8.990;2023-11-21T06:36:56;14.50;59.60